This demonstration page uses our WeatherBlox Daily Observations layout. Learn more.

Left ArrowRight Arrow

39.08367, -84.50855

Hourly Observations for March 31, 2016

Temp ( °F °C ) Dew Point ( °F °C ) Humidity (%) Winds ( mph kmh ) Pressure ( in mb ) Visibility ( mi km ) Precip ( " mm )
12:53 am 00:53 Mostly Cloudy 62 16.7 45 7.2 54 54 SSW 9 15 29.78 1008 10 16.0934 N/A
1:53 am 01:53 Cloudy 65 18.3 42 5.6 43 43 SW 13 20 29.78 1009 10 16.0934 N/A
2:53 am 02:53 Cloudy with Light Rain 60 15.6 47 8.3 62 62 SSW 18 30 29.8 1009 10 16.0934 0.01 0.254
3:53 am 03:53 Cloudy with Light Rain 57 13.9 50 10 78 78 SSW 15 24 29.77 1008 10 16.0934 0.03 0.762
4:53 am 04:53 Cloudy with Light Rain 56 13.3 50 10 81 81 S 13 20 29.75 1007 10 16.0934 0.01 0.254
5:53 am 05:53 Cloudy with Light Rain 54 12.2 52 11.1 93 93 S 6 9 29.73 1007 7 11.26538 0.02 0.508
6:53 am 06:53 Cloudy with Light Rain 54 12.2 52 11.1 93 93 SSW 5 7 29.72 1006 6 9.65604 0.03 0.762
7:53 am 07:53 Cloudy with Light Rain 53 11.7 52 11.1 96 96 N N/A 29.7 1006 7 11.26538 0.02 0.508
8:53 am 08:53 Cloudy with Light Rain 53 11.7 53 11.7 100 100 N N/A 29.67 1005 4 6.43736 0.05 1.27
9:53 am 09:53 Cloudy with Rain 57 13.9 55 12.8 93 93 S 13 20 29.64 1004 4 6.43736 0.1 2.54
10:06 am 10:06 Cloudy with Rain 57 14 55 13 94 94 S 13 20 29.65 1004 2 3.21868 N/A
10:53 am 10:53 Cloudy with Light Rain 59 15 57 13.9 93 93 SSW 17 28 29.65 1004 2 3.21868 0.12 3.048
11:45 am 11:45 Cloudy with Light Rain 61 16.1 59 15 93 93 SSW 24 39 29.65 1004 4 6.43736 0.05 1.27
11:53 am 11:53 Cloudy with Light Rain 61 16.1 59 15 93 93 SSW 28 44 29.65 1004 4 6.43736 0.06 1.524
12:53 pm 12:53 Mostly Cloudy with Light Rain 63 17.2 60 15.6 90 90 SSW 18 30 29.62 1003 10 16.0934 N/A
1:53 pm 13:53 Cloudy 65 18.3 60 15.6 84 84 SSW 20 31 29.61 1003 10 16.0934 N/A
2:41 pm 14:41 Mostly Cloudy 68 20 60 15.6 76 76 S 24 39 29.59 1002 10 16.0934 N/A
2:53 pm 14:53 Mostly Cloudy 69 20.6 60 15.6 73 73 SSW 22 35 29.57 1001 10 16.0934 N/A
3:53 pm 15:53 Cloudy 69 20.6 59 15 70 70 SSW 24 39 29.56 1001 10 16.0934 N/A
4:53 pm 16:53 Cloudy 69 20.6 59 15 70 70 SW 18 30 29.58 1002 10 16.0934 N/A
5:19 pm 17:19 Cloudy with Thunderstorms 69 20.6 59 15 70 70 SSW 13 20 29.59 1002 10 16.0934 N/A

Powered by AerisWeather